createdAt,value
2022-11-09T00:01:47.991Z,5.99
2022-11-09T00:04:28.650Z,5.86
2022-11-09T00:07:02.074Z,5.69
2022-11-09T00:09:44.312Z,5.53
2022-11-09T00:12:18.085Z,5.48
2022-11-09T00:14:49.842Z,5.47
2022-11-09T00:17:22.900Z,5.36
2022-11-09T00:19:56.720Z,5.39
2022-11-09T00:22:29.841Z,5.40
2022-11-09T00:25:03.183Z,5.36
2022-11-09T00:27:41.092Z,5.23
2022-11-09T00:30:16.213Z,5.18
2022-11-09T00:32:52.660Z,5.16
2022-11-09T00:35:26.321Z,5.16
2022-11-09T00:38:00.313Z,5.22
2022-11-09T00:40:34.488Z,5.26
2022-11-09T00:43:07.929Z,5.29
2022-11-09T00:45:42.051Z,5.24
2022-11-09T00:48:20.350Z,5.18
2022-11-09T00:50:58.181Z,5.18
2022-11-09T00:53:33.954Z,5.18
2022-11-09T00:56:10.042Z,5.18
2022-11-09T00:58:45.735Z,5.18
2022-11-09T01:01:20.416Z,5.15
2022-11-09T01:03:54.786Z,5.14
2022-11-09T01:06:29.797Z,5.13
2022-11-09T01:09:03.001Z,5.11
2022-11-09T01:11:38.322Z,5.08
2022-11-09T01:14:25.956Z,5.03
2022-11-09T01:17:03.159Z,5.03
2022-11-09T01:19:40.003Z,5.01
2022-11-09T01:22:14.010Z,4.99
2022-11-09T01:24:48.062Z,4.93
2022-11-09T01:27:22.929Z,4.90
2022-11-09T01:29:57.463Z,4.90
2022-11-09T01:32:33.131Z,4.90
2022-11-09T01:35:06.553Z,4.89
2022-11-09T01:37:39.821Z,4.89
2022-11-09T01:40:17.165Z,4.88
2022-11-09T01:42:50.818Z,4.88
2022-11-09T01:45:33.571Z,4.86
2022-11-09T01:48:14.451Z,4.81
2022-11-09T01:51:00.489Z,4.77
2022-11-09T01:53:40.683Z,4.76
2022-11-09T01:56:21.500Z,4.79
2022-11-09T01:58:59.627Z,4.80
2022-11-09T02:01:36.309Z,4.77
2022-11-09T02:04:15.724Z,4.79
2022-11-09T02:06:51.301Z,4.78
2022-11-09T02:09:40.481Z,4.83
2022-11-09T02:12:15.251Z,4.80
2022-11-09T02:14:52.014Z,4.79
2022-11-09T02:17:29.136Z,4.73
2022-11-09T02:20:04.420Z,4.71
2022-11-09T02:22:40.870Z,4.60
2022-11-09T02:25:16.337Z,4.57
2022-11-09T02:27:52.557Z,4.52
2022-11-09T02:30:28.546Z,4.60
2022-11-09T02:33:04.326Z,4.62
2022-11-09T02:35:38.866Z,4.60
2022-11-09T02:38:16.557Z,4.57
2022-11-09T02:40:53.808Z,4.53
2022-11-09T02:43:30.886Z,4.45
2022-11-09T02:46:06.753Z,4.43
2022-11-09T02:48:41.543Z,4.37
2022-11-09T02:51:16.340Z,4.26
2022-11-09T02:53:53.991Z,4.13
2022-11-09T02:56:31.062Z,4.08
2022-11-09T02:59:09.115Z,4.08
2022-11-09T03:01:49.439Z,4.07
2022-11-09T03:04:23.675Z,4.05
2022-11-09T03:06:59.784Z,3.94
2022-11-09T03:09:36.197Z,3.82
2022-11-09T03:12:25.157Z,3.82
2022-11-09T03:15:01.688Z,3.87
2022-11-09T03:17:39.056Z,3.87
2022-11-09T03:20:16.400Z,3.87
2022-11-09T03:22:59.425Z,3.87
2022-11-09T03:25:35.090Z,3.85
2022-11-09T03:28:11.013Z,3.86
2022-11-09T03:30:47.904Z,3.81
2022-11-09T03:33:24.106Z,3.71
2022-11-09T03:36:04.078Z,3.67
2022-11-09T03:38:39.865Z,3.69
2022-11-09T03:41:16.376Z,3.71
2022-11-09T03:43:54.037Z,3.69
2022-11-09T03:46:30.628Z,3.68
2022-11-09T03:49:05.500Z,3.68
2022-11-09T03:51:40.522Z,3.65
2022-11-09T03:54:21.333Z,3.66
2022-11-09T03:56:57.053Z,3.67
2022-11-09T03:59:35.279Z,3.65
2022-11-09T04:02:11.382Z,3.55
2022-11-09T04:04:45.859Z,3.52
2022-11-09T04:07:20.839Z,3.52
2022-11-09T04:09:56.174Z,3.51
2022-11-09T04:12:34.357Z,3.43
2022-11-09T04:15:10.876Z,3.38
2022-11-09T04:17:56.298Z,3.32
2022-11-09T04:20:33.284Z,3.21
2022-11-09T04:23:12.508Z,3.15
2022-11-09T04:25:49.452Z,3.15
2022-11-09T04:28:28.940Z,3.18
2022-11-09T04:31:06.372Z,3.16
2022-11-09T04:33:42.097Z,3.04
2022-11-09T04:36:17.876Z,3.05
2022-11-09T04:38:52.923Z,3.04
2022-11-09T04:41:29.433Z,2.99
2022-11-09T04:44:04.755Z,2.90
2022-11-09T04:46:39.317Z,2.82
2022-11-09T04:49:15.213Z,2.79
2022-11-09T04:51:50.367Z,2.90
2022-11-09T04:54:25.120Z,2.96
2022-11-09T04:56:59.782Z,3.08
2022-11-09T04:59:38.196Z,3.09
2022-11-09T05:02:18.356Z,3.05
2022-11-09T05:04:59.317Z,3.18
2022-11-09T05:07:33.559Z,3.27
2022-11-09T05:10:22.602Z,3.29
2022-11-09T05:13:02.095Z,3.19
2022-11-09T05:15:38.952Z,3.08
2022-11-09T05:18:14.243Z,3.07
2022-11-09T05:20:48.838Z,3.08
2022-11-09T05:23:41.108Z,3.21
2022-11-09T05:26:16.864Z,3.38
2022-11-09T05:28:53.197Z,3.25
2022-11-09T05:31:28.685Z,3.34
2022-11-09T05:34:09.377Z,3.47
2022-11-09T05:36:49.336Z,3.55
2022-11-09T05:39:23.303Z,3.67
2022-11-09T05:42:01.441Z,3.62
2022-11-09T05:44:35.541Z,3.51
2022-11-09T05:47:10.846Z,3.47
2022-11-09T05:49:47.471Z,3.56
2022-11-09T05:52:23.006Z,3.60
2022-11-09T05:54:58.330Z,3.60
2022-11-09T05:57:34.157Z,3.59
2022-11-09T06:00:11.872Z,3.52
2022-11-09T06:02:51.536Z,3.60
2022-11-09T06:05:27.730Z,3.66
2022-11-09T06:08:06.737Z,3.64
2022-11-09T06:10:41.716Z,3.64
2022-11-09T06:13:19.701Z,3.67
2022-11-09T06:15:59.937Z,3.72
2022-11-09T06:18:38.159Z,3.70
2022-11-09T06:21:14.687Z,3.75
2022-11-09T06:23:49.272Z,3.78
2022-11-09T06:26:23.516Z,3.80
2022-11-09T06:28:59.412Z,3.76
2022-11-09T06:31:33.829Z,3.81
2022-11-09T06:34:10.200Z,3.85
2022-11-09T06:36:47.144Z,3.90
2022-11-09T06:39:22.687Z,3.96
2022-11-09T06:42:00.674Z,4.16
2022-11-09T06:44:36.238Z,4.53
2022-11-09T06:47:10.698Z,4.75
2022-11-09T06:49:45.017Z,4.98
2022-11-09T06:52:21.603Z,5.17
2022-11-09T06:54:56.672Z,5.31
2022-11-09T06:57:35.878Z,5.47
2022-11-09T07:00:20.287Z,5.77
2022-11-09T07:02:56.657Z,6.04
2022-11-09T07:05:32.881Z,6.14
2022-11-09T07:08:07.734Z,6.25
2022-11-09T07:10:50.108Z,6.34
2022-11-09T07:13:24.982Z,6.44
2022-11-09T07:16:00.075Z,6.69
2022-11-09T07:18:39.311Z,6.86
2022-11-09T07:21:14.713Z,6.97
2022-11-09T07:23:52.313Z,7.03
2022-11-09T07:26:27.338Z,7.03
2022-11-09T07:29:01.304Z,6.96
2022-11-09T07:31:36.072Z,6.88
2022-11-09T07:34:10.928Z,7.01
2022-11-09T07:36:48.198Z,7.10
2022-11-09T07:39:23.244Z,7.18
2022-11-09T07:41:57.981Z,7.30
2022-11-09T07:44:43.199Z,7.51
2022-11-09T07:47:19.221Z,7.69
2022-11-09T07:49:57.207Z,7.91
2022-11-09T07:52:32.061Z,8.01
2022-11-09T07:55:09.962Z,8.14
2022-11-09T07:57:47.842Z,8.33
2022-11-09T08:00:27.815Z,8.48
2022-11-09T08:03:03.051Z,8.61
2022-11-09T08:05:39.745Z,8.79
2022-11-09T08:08:16.909Z,9.03
2022-11-09T08:10:58.982Z,9.26
2022-11-09T08:13:34.503Z,9.33
2022-11-09T08:16:10.959Z,9.27
2022-11-09T08:18:47.634Z,9.35
2022-11-09T08:21:23.644Z,9.40
2022-11-09T08:23:59.496Z,9.41
2022-11-09T08:26:33.850Z,9.46
2022-11-09T08:29:08.829Z,9.44
2022-11-09T08:31:44.427Z,9.43
2022-11-09T08:34:22.061Z,9.42
2022-11-09T08:37:01.875Z,9.38
2022-11-09T08:39:37.529Z,9.47
2022-11-09T08:42:13.525Z,9.33
2022-11-09T08:44:50.893Z,9.21
2022-11-09T08:47:26.379Z,9.27
2022-11-09T08:50:12.085Z,9.47
2022-11-09T08:52:49.502Z,9.46
2022-11-09T08:55:25.238Z,9.58
2022-11-09T08:58:03.018Z,9.62
2022-11-09T09:00:40.742Z,9.79
2022-11-09T09:03:18.102Z,9.73
2022-11-09T09:05:53.266Z,9.84
2022-11-09T09:08:28.335Z,9.72
2022-11-09T09:11:07.267Z,9.70
2022-11-09T09:13:46.313Z,9.98
2022-11-09T09:16:22.853Z,10.26
2022-11-09T09:19:00.526Z,10.42
2022-11-09T09:21:36.278Z,10.47
2022-11-09T09:24:11.813Z,10.38
2022-11-09T09:26:49.074Z,10.50
2022-11-09T09:29:24.391Z,10.61
2022-11-09T09:32:02.254Z,10.66
2022-11-09T09:34:38.240Z,10.82
2022-11-09T09:37:15.652Z,10.99
2022-11-09T09:39:51.418Z,11.09
2022-11-09T09:42:32.223Z,11.10
2022-11-09T09:45:15.478Z,11.10
2022-11-09T09:47:55.757Z,11.12
2022-11-09T09:50:38.483Z,11.17
2022-11-09T09:53:29.983Z,11.19
2022-11-09T09:56:19.366Z,11.06
2022-11-09T09:59:02.062Z,10.97
2022-11-09T10:01:42.645Z,11.03
2022-11-09T10:04:23.831Z,10.96
2022-11-09T10:07:06.211Z,11.09
2022-11-09T10:09:57.377Z,11.16
2022-11-09T10:12:42.347Z,11.09
2022-11-09T10:15:29.385Z,11.00
2022-11-09T10:18:29.398Z,10.99
2022-11-09T10:21:23.305Z,11.05
2022-11-09T10:24:11.244Z,11.08
2022-11-09T10:26:53.398Z,11.19
2022-11-09T10:29:29.376Z,11.27
2022-11-09T10:32:12.807Z,11.39
2022-11-09T10:35:05.889Z,11.42
2022-11-09T10:37:44.295Z,11.47
2022-11-09T10:40:26.368Z,11.49
2022-11-09T10:43:22.574Z,11.53
2022-11-09T10:46:18.301Z,11.44
2022-11-09T10:49:25.614Z,11.54
2022-11-09T10:52:47.191Z,11.52
2022-11-09T10:55:41.415Z,11.60
2022-11-09T10:58:40.201Z,11.63
2022-11-09T11:01:40.829Z,11.67
2022-11-09T11:04:34.949Z,11.63
2022-11-09T11:07:30.151Z,11.58
2022-11-09T11:10:27.444Z,11.53
2022-11-09T11:13:36.744Z,11.54
2022-11-09T11:16:34.840Z,11.45
2022-11-09T11:19:38.752Z,11.41
2022-11-09T11:22:33.762Z,11.37
2022-11-09T11:25:27.916Z,11.37
2022-11-09T11:28:26.334Z,11.40
2022-11-09T11:31:23.691Z,11.54
2022-11-09T11:34:38.451Z,11.67
2022-11-09T11:37:47.576Z,11.82
2022-11-09T11:41:09.984Z,11.92
2022-11-09T11:44:11.026Z,12.15
2022-11-09T11:47:11.695Z,12.41
2022-11-09T11:50:21.436Z,12.59
2022-11-09T11:53:30.932Z,12.70
2022-11-09T11:56:33.944Z,12.91
2022-11-09T11:59:56.876Z,13.11
2022-11-09T12:03:19.566Z,13.25
2022-11-09T12:06:34.281Z,13.37
2022-11-09T12:09:44.865Z,13.45
2022-11-09T12:12:50.596Z,13.47
2022-11-09T12:15:57.790Z,13.49
2022-11-09T12:19:03.690Z,13.24
2022-11-09T12:22:05.662Z,13.17
2022-11-09T12:25:05.499Z,13.14
2022-11-09T12:28:13.611Z,13.05
2022-11-09T12:31:21.459Z,13.18
2022-11-09T12:34:24.823Z,13.18
2022-11-09T12:37:22.976Z,13.15
2022-11-09T12:40:32.620Z,13.04
2022-11-09T12:43:34.230Z,13.11
2022-11-09T12:46:33.422Z,13.18
2022-11-09T12:49:36.165Z,13.29
2022-11-09T12:52:33.761Z,13.30
2022-11-09T12:55:34.934Z,13.26
2022-11-09T12:58:30.140Z,13.32
2022-11-09T13:01:53.114Z,13.28
2022-11-09T13:04:59.358Z,13.28
2022-11-09T13:07:57.010Z,13.28
2022-11-09T13:11:09.896Z,13.21
2022-11-09T13:14:32.323Z,13.05
2022-11-09T13:18:05.624Z,13.00
2022-11-09T13:21:20.251Z,13.03
2022-11-09T13:24:56.840Z,12.99
2022-11-09T13:27:50.766Z,12.98
2022-11-09T13:30:48.586Z,12.90
2022-11-09T13:33:42.850Z,12.83
2022-11-09T13:36:36.832Z,12.76
2022-11-09T13:39:40.079Z,12.66
2022-11-09T13:42:36.127Z,12.56
2022-11-09T13:45:36.216Z,12.50
2022-11-09T13:48:36.832Z,12.36
2022-11-09T13:51:46.835Z,12.32
2022-11-09T13:54:46.560Z,12.22
2022-11-09T13:57:43.214Z,12.21
2022-11-09T14:00:36.451Z,12.24
2022-11-09T14:03:31.696Z,12.21
2022-11-09T14:06:24.788Z,12.17
2022-11-09T14:09:22.285Z,12.13
2022-11-09T14:12:34.367Z,12.12
2022-11-09T14:15:41.117Z,12.06
2022-11-09T14:18:46.099Z,12.02
2022-11-09T14:21:48.441Z,11.99
2022-11-09T14:24:44.104Z,11.95
2022-11-09T14:27:48.879Z,11.88
2022-11-09T14:30:48.357Z,11.83
2022-11-09T14:33:42.988Z,11.72
2022-11-09T14:36:43.812Z,11.70
2022-11-09T14:39:41.287Z,11.57
2022-11-09T14:42:37.195Z,11.47
2022-11-09T14:45:33.887Z,11.40
2022-11-09T14:48:28.320Z,11.32
2022-11-09T14:51:23.715Z,11.23
2022-11-09T14:54:19.333Z,11.06
2022-11-09T14:57:16.447Z,10.95
2022-11-09T15:00:24.097Z,10.88
2022-11-09T15:03:30.232Z,10.78
2022-11-09T15:06:47.786Z,10.67
2022-11-09T15:09:53.787Z,10.54
2022-11-09T15:12:55.675Z,10.48
2022-11-09T15:16:02.185Z,10.39
2022-11-09T15:19:08.411Z,10.38
2022-11-09T15:22:02.946Z,10.33
2022-11-09T15:24:58.623Z,10.26
2022-11-09T15:28:29.269Z,10.27
2022-11-09T15:31:23.405Z,10.22
2022-11-09T15:34:22.905Z,10.19
2022-11-09T15:37:31.104Z,10.04
2022-11-09T15:40:25.183Z,9.99
2022-11-09T15:43:20.934Z,9.91
2022-11-09T15:46:16.556Z,9.80
2022-11-09T15:49:23.944Z,9.69
2022-11-09T15:52:18.681Z,9.58
2022-11-09T15:55:16.955Z,9.57
2022-11-09T15:58:12.368Z,9.54
2022-11-09T16:01:13.094Z,9.51
2022-11-09T16:04:09.675Z,9.42
2022-11-09T16:07:03.364Z,9.36
2022-11-09T16:10:16.625Z,9.30
2022-11-09T16:13:10.917Z,9.28
2022-11-09T16:16:09.176Z,9.28
2022-11-09T16:19:05.064Z,9.20
2022-11-09T16:22:04.627Z,9.19
2022-11-09T16:25:16.909Z,9.13
2022-11-09T16:28:11.601Z,8.94
2022-11-09T16:31:09.885Z,8.95
2022-11-09T16:34:19.983Z,8.91
2022-11-09T16:37:17.844Z,8.90
2022-11-09T16:40:15.806Z,8.84
2022-11-09T16:43:09.483Z,8.80
2022-11-09T16:46:03.065Z,8.75
2022-11-09T16:49:03.575Z,8.72
2022-11-09T16:51:57.997Z,8.65
2022-11-09T16:54:51.976Z,8.58
2022-11-09T16:57:50.903Z,8.55
2022-11-09T17:04:06.477Z,8.43
2022-11-09T17:07:03.511Z,8.42
2022-11-09T17:09:58.458Z,8.38
2022-11-09T17:12:57.679Z,8.31
2022-11-09T17:15:53.073Z,8.27
2022-11-09T17:18:47.075Z,8.19
2022-11-09T17:21:42.479Z,8.13
2022-11-09T17:24:36.542Z,8.07
2022-11-09T17:27:30.533Z,8.04
2022-11-09T17:30:25.658Z,8.00
2022-11-09T17:33:22.421Z,8.01
2022-11-09T17:36:29.929Z,8.00
2022-11-09T17:39:32.986Z,7.99
2022-11-09T17:42:27.022Z,8.01
2022-11-09T17:45:19.300Z,8.04
2022-11-09T17:48:12.959Z,8.00
2022-11-09T17:51:04.594Z,8.02
2022-11-09T17:54:00.135Z,7.95
2022-11-09T17:56:54.806Z,7.97
2022-11-09T18:00:00.598Z,7.89
2022-11-09T18:02:58.486Z,7.77
2022-11-09T18:05:52.863Z,7.66
2022-11-09T18:08:58.296Z,7.60
2022-11-09T18:12:05.233Z,7.61
2022-11-09T18:14:59.487Z,7.60
2022-11-09T18:17:52.802Z,7.58
2022-11-09T18:20:47.751Z,7.55
2022-11-09T18:23:41.744Z,7.52
2022-11-09T18:26:35.284Z,7.51
2022-11-09T18:29:29.573Z,7.50
2022-11-09T18:32:24.770Z,7.49
2022-11-09T18:35:20.346Z,7.48
2022-11-09T18:38:17.511Z,7.44
2022-11-09T18:41:15.051Z,7.39
2022-11-09T18:44:12.506Z,7.35
2022-11-09T18:47:06.042Z,7.33
2022-11-09T18:49:59.627Z,7.32
2022-11-09T18:52:53.933Z,7.31
2022-11-09T18:55:49.841Z,7.30
2022-11-09T18:58:44.399Z,7.29
2022-11-09T19:01:45.516Z,7.27
2022-11-09T19:04:40.825Z,7.26
2022-11-09T19:07:36.486Z,7.28
2022-11-09T19:10:31.002Z,7.34
2022-11-09T19:13:27.890Z,7.32
2022-11-09T19:16:29.382Z,7.29
2022-11-09T19:19:28.216Z,7.22
2022-11-09T19:22:25.442Z,7.19
2022-11-09T19:25:21.770Z,7.16
2022-11-09T19:28:16.033Z,7.13
2022-11-09T19:31:12.731Z,7.13
2022-11-09T19:34:08.176Z,7.11
2022-11-09T19:37:01.079Z,7.10
2022-11-09T19:39:55.802Z,7.09
2022-11-09T19:42:49.001Z,7.08
2022-11-09T19:45:45.836Z,7.09
2022-11-09T19:48:45.714Z,7.08
2022-11-09T19:51:39.614Z,7.09
2022-11-09T19:54:33.268Z,7.08
2022-11-09T19:57:52.652Z,7.07
2022-11-09T20:00:49.146Z,7.03
2022-11-09T20:03:43.496Z,7.01
2022-11-09T20:06:36.166Z,6.98
2022-11-09T20:09:32.194Z,6.96
2022-11-09T20:12:47.039Z,6.93
2022-11-09T20:15:42.350Z,6.91
2022-11-09T20:18:36.552Z,6.91
2022-11-09T20:21:30.069Z,6.96
2022-11-09T20:24:22.895Z,7.00
2022-11-09T20:27:17.185Z,7.00
2022-11-09T20:30:14.091Z,7.00
2022-11-09T20:33:15.518Z,7.00
2022-11-09T20:36:09.318Z,7.01
2022-11-09T20:39:03.131Z,7.00
2022-11-09T20:41:58.826Z,6.98
2022-11-09T20:45:05.874Z,6.94
2022-11-09T20:48:14.762Z,6.90
2022-11-09T20:51:19.173Z,6.85
2022-11-09T20:54:13.624Z,6.82
2022-11-09T20:57:07.976Z,6.77
2022-11-09T21:00:00.879Z,6.75
2022-11-09T21:02:54.866Z,6.73
2022-11-09T21:06:01.241Z,6.69
2022-11-09T21:08:56.660Z,6.66
2022-11-09T21:12:06.155Z,6.64
2022-11-09T21:14:59.924Z,6.62
2022-11-09T21:17:54.852Z,6.61
2022-11-09T21:20:48.325Z,6.59
2022-11-09T21:24:01.111Z,6.55
2022-11-09T21:27:11.912Z,6.51
2022-11-09T21:30:06.048Z,6.49
2022-11-09T21:32:59.857Z,6.47
2022-11-09T21:35:57.194Z,6.45
2022-11-09T21:38:56.521Z,6.42
2022-11-09T21:41:52.042Z,6.37
2022-11-09T21:44:48.588Z,6.34
2022-11-09T21:47:39.810Z,6.33
2022-11-09T21:50:33.502Z,6.25
2022-11-09T21:53:33.747Z,6.26
2022-11-09T21:56:26.715Z,6.24
2022-11-09T21:59:23.981Z,6.24
2022-11-09T22:02:16.228Z,6.21
2022-11-09T22:05:10.506Z,6.20
2022-11-09T22:08:04.939Z,6.19
2022-11-09T22:11:10.269Z,6.18
2022-11-09T22:14:22.018Z,6.15
2022-11-09T22:17:17.125Z,6.10
2022-11-09T22:20:31.911Z,6.07
2022-11-09T22:23:25.375Z,6.03
2022-11-09T22:26:18.887Z,6.02
2022-11-09T22:29:39.709Z,6.00
2022-11-09T22:32:33.051Z,5.97
2022-11-09T22:35:27.566Z,5.95
2022-11-09T22:38:20.675Z,5.92
2022-11-09T22:41:17.970Z,5.92
2022-11-09T22:44:13.659Z,5.87
2022-11-09T22:47:10.944Z,5.85
2022-11-09T22:50:04.555Z,5.83
2022-11-09T22:53:03.462Z,5.81
2022-11-09T22:55:59.812Z,5.79
2022-11-09T22:58:55.766Z,5.74
2022-11-09T23:01:50.441Z,5.75
2022-11-09T23:04:45.553Z,5.75
2022-11-09T23:07:39.968Z,5.74
2022-11-09T23:10:32.410Z,5.70
2022-11-09T23:13:26.075Z,5.71
2022-11-09T23:16:18.936Z,5.71
2022-11-09T23:19:12.092Z,5.66
2022-11-09T23:22:04.898Z,5.68
2022-11-09T23:25:15.225Z,5.67
2022-11-09T23:28:12.235Z,5.64
2022-11-09T23:31:14.525Z,5.63
2022-11-09T23:34:10.557Z,5.64
2022-11-09T23:37:04.220Z,5.63
2022-11-09T23:39:59.371Z,5.64
2022-11-09T23:43:06.155Z,5.62
2022-11-09T23:46:02.571Z,5.61
2022-11-09T23:48:56.673Z,5.60
2022-11-09T23:51:50.439Z,5.60
2022-11-09T23:54:43.013Z,5.59
2022-11-09T23:57:36.395Z,5.60
